createdAt,value
2022-09-05T00:00:15.841Z,1.73
2022-09-05T00:03:03.359Z,2.57
2022-09-05T00:06:02.139Z,2.60
2022-09-05T00:08:52.504Z,3.47
2022-09-05T00:11:40.891Z,4.03
2022-09-05T00:15:17.087Z,3.80
2022-09-05T00:19:05.237Z,4.70
2022-09-05T00:24:19.596Z,2.67
2022-09-05T00:24:32.755Z,2.67
2022-09-05T00:26:50.173Z,2.83
2022-09-05T00:31:07.096Z,2.70
2022-09-05T00:32:53.351Z,9.90
2022-09-05T00:35:42.920Z,7.10
2022-09-05T00:38:18.814Z,4.70
2022-09-05T00:40:56.491Z,3.70
2022-09-05T00:43:28.258Z,1.90
2022-09-05T00:46:02.568Z,2.63
2022-09-05T00:48:41.764Z,4.57
2022-09-05T00:51:47.076Z,2.80
2022-09-05T00:54:40.912Z,2.97
2022-09-05T00:57:33.341Z,2.90
2022-09-05T01:00:17.253Z,3.07
2022-09-05T01:03:10.631Z,2.10
2022-09-05T01:06:24.336Z,3.27
2022-09-05T01:09:30.601Z,2.30
2022-09-05T01:12:14.518Z,2.67
2022-09-05T01:15:06.325Z,2.20
2022-09-05T01:17:52.765Z,3.63
2022-09-05T01:20:38.113Z,3.53
2022-09-05T01:23:18.048Z,2.43
2022-09-05T01:25:59.756Z,3.57
2022-09-05T01:29:17.657Z,3.70
2022-09-05T01:31:58.679Z,2.40
2022-09-05T01:34:42.161Z,3.47
2022-09-05T01:37:32.627Z,2.90
2022-09-05T01:40:29.472Z,2.63
2022-09-05T01:43:15.293Z,3.43
2022-09-05T01:45:50.839Z,2.87
2022-09-05T01:48:35.468Z,2.10
2022-09-05T01:51:31.540Z,3.40
2022-09-05T01:54:25.556Z,1.90
2022-09-05T01:57:21.299Z,2.40
2022-09-05T02:00:11.829Z,2.67
2022-09-05T02:02:50.726Z,2.47
2022-09-05T02:05:49.204Z,2.17
2022-09-05T02:08:15.766Z,3.87
2022-09-05T02:10:45.129Z,4.53
2022-09-05T02:13:28.838Z,3.93
2022-09-05T02:16:14.377Z,4.47
2022-09-05T02:19:16.997Z,3.40
2022-09-05T02:22:08.351Z,2.67
2022-09-05T02:26:00.689Z,2.77
2022-09-05T02:28:06.305Z,3.23
2022-09-05T02:30:58.956Z,2.50
2022-09-05T02:33:46.095Z,3.40
2022-09-05T02:36:22.681Z,3.23
2022-09-05T02:45:02.628Z,2.63
2022-09-05T02:45:14.354Z,2.70
2022-09-05T02:45:25.565Z,3.13
2022-09-05T02:48:15.889Z,2.57
2022-09-05T02:57:30.441Z,3.10
2022-09-05T02:57:39.221Z,3.57
2022-09-05T02:57:42.318Z,4.20
2022-09-05T03:00:28.399Z,2.20
2022-09-05T03:03:05.598Z,2.50
2022-09-05T03:06:03.571Z,2.67
2022-09-05T03:09:09.744Z,3.03
2022-09-05T03:12:28.641Z,3.57
2022-09-05T03:15:22.333Z,3.20
2022-09-05T03:18:20.526Z,2.30
2022-09-05T03:21:12.148Z,2.17
2022-09-05T03:24:06.024Z,2.10
2022-09-05T03:27:17.322Z,1.70
2022-09-05T03:30:01.559Z,1.67
2022-09-05T03:32:33.907Z,1.33
2022-09-05T03:35:40.756Z,2.63
2022-09-05T03:38:37.912Z,2.87
2022-09-05T03:41:36.751Z,1.70
2022-09-05T03:44:15.929Z,2.33
2022-09-05T03:46:54.597Z,1.37
2022-09-05T03:52:27.466Z,2.10
2022-09-05T03:57:05.158Z,1.93
2022-09-05T03:57:26.663Z,1.67
2022-09-05T03:59:02.762Z,2.20
2022-09-05T04:03:40.826Z,2.60
2022-09-05T04:08:18.261Z,2.13
2022-09-05T04:08:18.633Z,2.47
2022-09-05T04:10:53.706Z,2.93
2022-09-05T04:13:23.096Z,2.77
2022-09-05T04:16:04.017Z,2.07
2022-09-05T04:19:04.208Z,4.67
2022-09-05T04:21:36.787Z,1.67
2022-09-05T04:24:15.747Z,3.40
2022-09-05T04:26:48.117Z,4.60
2022-09-05T04:29:39.699Z,2.77
2022-09-05T04:32:21.436Z,4.00
2022-09-05T04:35:15.983Z,2.07
2022-09-05T04:38:09.014Z,2.87
2022-09-05T04:40:38.640Z,2.50
2022-09-05T04:43:25.885Z,6.13
2022-09-05T04:46:26.870Z,4.10
2022-09-05T04:49:11.579Z,6.73
2022-09-05T04:52:00.077Z,3.97
2022-09-05T04:54:48.866Z,2.63
2022-09-05T04:57:27.542Z,2.83
2022-09-05T05:05:58.426Z,2.43
2022-09-05T05:06:11.536Z,3.73
2022-09-05T05:06:18.132Z,2.20
2022-09-05T05:08:54.285Z,3.47
2022-09-05T05:17:53.747Z,2.50
2022-09-05T05:17:58.728Z,2.10
2022-09-05T05:18:14.682Z,2.80
2022-09-05T05:20:50.081Z,4.80
2022-09-05T05:23:21.538Z,11.67
2022-09-05T05:25:54.426Z,12.83
2022-09-05T05:28:39.082Z,7.27
2022-09-05T05:31:15.869Z,8.07
2022-09-05T05:33:49.070Z,7.73
2022-09-05T05:36:39.675Z,3.20
2022-09-05T05:39:25.118Z,3.80
2022-09-05T05:41:54.828Z,6.57
2022-09-05T05:44:29.613Z,4.90
2022-09-05T05:47:01.260Z,5.50
2022-09-05T05:49:59.418Z,5.33
2022-09-05T05:52:38.851Z,6.13
2022-09-05T05:55:51.651Z,4.93
2022-09-05T05:58:45.646Z,7.30
2022-09-05T06:01:28.873Z,9.03
2022-09-05T06:04:46.343Z,3.40
2022-09-05T06:08:01.189Z,9.10
2022-09-05T06:14:51.011Z,4.03
2022-09-05T06:14:57.015Z,23.23
2022-09-05T06:17:28.599Z,32.67
2022-09-05T06:22:11.120Z,5.87
2022-09-05T06:23:39.307Z,7.93
2022-09-05T06:26:21.488Z,3.43
2022-09-05T06:29:14.827Z,7.73
2022-09-05T06:32:01.994Z,7.70
2022-09-05T06:34:59.679Z,4.47
2022-09-05T06:37:45.327Z,5.60
2022-09-05T06:40:53.023Z,4.87
2022-09-05T06:43:38.084Z,5.17
2022-09-05T06:46:54.916Z,6.43
2022-09-05T06:49:28.436Z,8.43
2022-09-05T06:52:29.257Z,53.10
2022-09-05T06:55:27.747Z,10.07
2022-09-05T06:58:07.435Z,5.73
2022-09-05T07:00:44.789Z,3.77
2022-09-05T07:03:35.654Z,7.40
2022-09-05T07:06:20.273Z,3.53
2022-09-05T07:08:57.477Z,7.53
2022-09-05T07:11:35.740Z,3.97
2022-09-05T07:14:19.853Z,4.27
2022-09-05T07:17:12.011Z,5.43
2022-09-05T07:19:49.858Z,4.97
2022-09-05T07:22:48.944Z,9.00
2022-09-05T07:25:20.010Z,8.00
2022-09-05T07:28:28.175Z,7.03
2022-09-05T07:30:50.644Z,8.37
2022-09-05T07:33:29.370Z,9.67
2022-09-05T07:36:07.062Z,10.80
2022-09-05T07:38:52.159Z,8.83
2022-09-05T07:41:31.396Z,7.97
2022-09-05T07:44:04.695Z,8.17
2022-09-05T07:46:37.463Z,8.80
2022-09-05T07:49:12.294Z,15.33
2022-09-05T07:56:55.459Z,15.33
2022-09-05T07:57:04.918Z,8.83
2022-09-05T07:57:33.901Z,7.30
2022-09-05T08:00:29.393Z,21.53
2022-09-05T08:03:08.216Z,4.63
2022-09-05T08:05:43.394Z,2.83
2022-09-05T08:08:19.043Z,7.10
2022-09-05T08:11:22.444Z,3.17
2022-09-05T08:13:46.540Z,4.43
2022-09-05T08:16:23.284Z,4.93
2022-09-05T08:19:35.583Z,2.97
2022-09-05T08:22:04.756Z,4.03
2022-09-05T08:24:43.954Z,5.20
2022-09-05T08:27:22.464Z,2.10
2022-09-05T08:30:26.449Z,1.17
2022-09-05T08:33:11.064Z,2.77
2022-09-05T08:36:00.815Z,4.13
2022-09-05T08:38:37.359Z,2.50
2022-09-05T08:41:16.679Z,3.43
2022-09-05T08:46:44.586Z,2.73
2022-09-05T08:47:16.655Z,2.90
2022-09-05T08:50:34.400Z,5.80
2022-09-05T08:53:45.485Z,4.60
2022-09-05T08:56:23.775Z,3.37
2022-09-05T08:59:31.813Z,5.03
2022-09-05T09:02:37.427Z,1.83
2022-09-05T09:05:14.254Z,1.53
2022-09-05T09:08:01.144Z,1.57
2022-09-05T09:10:55.613Z,2.23
2022-09-05T09:13:39.345Z,1.47
2022-09-05T09:16:42.384Z,3.17
2022-09-05T09:19:15.182Z,3.03
2022-09-05T09:21:53.868Z,2.73
2022-09-05T09:24:35.714Z,2.13
2022-09-05T09:27:12.722Z,1.60
2022-09-05T09:29:42.892Z,2.90
2022-09-05T09:32:15.404Z,1.27
2022-09-05T09:34:49.576Z,1.10
2022-09-05T09:37:53.432Z,1.43
2022-09-05T09:40:29.121Z,1.47
2022-09-05T09:43:07.137Z,3.37
2022-09-05T09:45:53.249Z,1.60
2022-09-05T09:48:28.786Z,2.00
2022-09-05T09:51:19.420Z,1.80
2022-09-05T09:54:10.417Z,4.43
2022-09-05T09:56:59.015Z,2.60
2022-09-05T09:59:49.678Z,3.03
2022-09-05T10:05:57.616Z,1.50
2022-09-05T10:10:33.152Z,1.87
2022-09-05T10:10:54.225Z,1.43
2022-09-05T10:11:51.395Z,2.47
2022-09-05T10:14:05.476Z,2.10
2022-09-05T10:17:00.221Z,1.33
2022-09-05T10:20:10.351Z,0.80
2022-09-05T10:23:11.667Z,0.73
2022-09-05T10:25:59.487Z,1.93
2022-09-05T10:28:49.667Z,1.40
2022-09-05T10:33:19.914Z,2.23
2022-09-05T10:35:14.709Z,1.03
2022-09-05T10:37:12.279Z,1.43
2022-09-05T10:39:43.673Z,1.13
2022-09-05T10:42:15.672Z,2.67
2022-09-05T10:44:52.727Z,0.93
2022-09-05T10:47:52.995Z,1.50
2022-09-05T10:50:33.064Z,1.80
2022-09-05T10:53:19.867Z,1.47
2022-09-05T10:56:03.465Z,1.93
2022-09-05T11:02:16.277Z,1.10
2022-09-05T11:02:28.148Z,1.10
2022-09-05T11:04:55.209Z,1.60
2022-09-05T11:07:54.258Z,0.80
2022-09-05T11:10:35.179Z,2.20
2022-09-05T11:13:30.962Z,2.00
2022-09-05T11:16:14.218Z,1.93
2022-09-05T11:19:02.438Z,0.77
2022-09-05T11:21:32.363Z,0.77
2022-09-05T11:24:20.148Z,1.40
2022-09-05T11:27:23.490Z,1.93
2022-09-05T11:29:51.053Z,0.80
2022-09-05T11:39:59.504Z,2.03
2022-09-05T11:40:00.001Z,3.70
2022-09-05T11:40:10.436Z,1.00
2022-09-05T11:42:10.974Z,1.20
2022-09-05T11:45:10.314Z,1.87
2022-09-05T11:47:55.636Z,1.73
2022-09-05T11:50:46.468Z,1.53
2022-09-05T11:53:54.066Z,4.17
2022-09-05T11:56:53.525Z,2.97
2022-09-05T11:59:37.770Z,1.10
2022-09-05T12:02:37.727Z,1.63
2022-09-05T12:05:49.561Z,2.70
2022-09-05T12:09:03.225Z,4.87
2022-09-05T12:11:55.231Z,2.33
2022-09-05T12:14:54.078Z,1.83
2022-09-05T12:17:40.661Z,1.00
2022-09-05T12:20:37.504Z,1.73
2022-09-05T12:23:39.908Z,2.83
2022-09-05T12:27:42.928Z,1.53
2022-09-05T12:29:48.610Z,1.37
2022-09-05T12:33:32.762Z,1.13
2022-09-05T12:36:06.884Z,0.70
2022-09-05T12:40:16.564Z,0.87
2022-09-05T12:41:43.449Z,1.80
2022-09-05T12:44:41.053Z,1.03
2022-09-05T12:47:16.609Z,0.53
2022-09-05T12:50:02.855Z,3.03
2022-09-05T12:52:35.542Z,1.73
2022-09-05T12:55:17.826Z,3.03
2022-09-05T12:59:50.912Z,3.10
2022-09-05T13:03:11.950Z,1.50
2022-09-05T13:03:53.544Z,0.50
2022-09-05T13:06:31.084Z,1.13
2022-09-05T13:09:16.889Z,1.20
2022-09-05T13:14:50.708Z,2.10
2022-09-05T13:15:14.022Z,0.40
2022-09-05T13:17:48.876Z,0.77
2022-09-05T13:20:36.680Z,1.67
2022-09-05T13:23:12.737Z,2.07
2022-09-05T13:25:44.720Z,1.40
2022-09-05T13:28:14.748Z,0.50
2022-09-05T13:34:12.692Z,1.83
2022-09-05T13:38:03.246Z,0.83
2022-09-05T13:38:07.595Z,1.13
2022-09-05T13:39:39.228Z,1.10
2022-09-05T13:42:10.232Z,1.47
2022-09-05T13:44:46.522Z,0.40
2022-09-05T13:47:29.683Z,0.70
2022-09-05T13:50:22.480Z,1.70
2022-09-05T13:52:56.900Z,1.60
2022-09-05T13:55:38.958Z,0.30
2022-09-05T13:58:25.231Z,0.97
2022-09-05T14:01:18.922Z,0.53
2022-09-05T14:10:15.917Z,1.10
2022-09-05T14:12:52.736Z,4.17
2022-09-05T14:15:58.792Z,2.43
2022-09-05T14:18:32.424Z,1.07
2022-09-05T14:21:18.974Z,3.23
2022-09-05T14:23:56.728Z,1.17
2022-09-05T14:26:35.438Z,0.87
2022-09-05T14:29:14.779Z,1.23
2022-09-05T14:37:45.690Z,1.10
2022-09-05T14:37:58.360Z,0.83
2022-09-05T14:38:25.426Z,1.93
2022-09-05T14:41:20.033Z,0.83
2022-09-05T14:44:01.054Z,0.60
2022-09-05T14:46:39.817Z,1.13
2022-09-05T14:49:31.684Z,1.47
2022-09-05T14:51:58.620Z,2.03
2022-09-05T15:02:43.423Z,3.27
2022-09-05T15:02:58.536Z,0.90
2022-09-05T15:03:12.545Z,3.23
2022-09-05T15:05:46.339Z,1.30
2022-09-05T15:10:52.464Z,0.50
2022-09-05T15:12:22.902Z,0.37
2022-09-05T15:14:05.066Z,2.70
2022-09-05T15:16:38.796Z,0.65
2022-09-05T15:19:14.563Z,2.80
2022-09-05T15:21:41.513Z,3.63
2022-09-05T15:24:29.565Z,1.10
2022-09-05T15:27:01.902Z,0.57
2022-09-05T15:29:34.478Z,1.00
2022-09-05T15:32:23.709Z,0.75
2022-09-05T15:34:54.572Z,0.65
2022-09-05T15:37:30.757Z,0.85
2022-09-05T15:40:23.280Z,0.60
2022-09-05T15:42:55.812Z,1.20
2022-09-05T15:45:35.524Z,3.07
2022-09-05T15:48:21.736Z,3.75
2022-09-05T15:50:51.609Z,1.23
2022-09-05T15:53:29.291Z,0.57
2022-09-05T15:56:28.260Z,1.80
2022-09-05T15:58:59.034Z,0.47
2022-09-05T16:02:00.327Z,0.37
2022-09-05T16:08:08.218Z,1.75
2022-09-05T16:10:38.381Z,2.05
2022-09-05T16:10:39.374Z,0.53
2022-09-05T16:13:33.932Z,0.63
2022-09-05T16:23:11.626Z,1.00
2022-09-05T16:23:28.978Z,2.60
2022-09-05T16:23:34.732Z,0.60
2022-09-05T16:24:59.069Z,0.50
2022-09-05T16:27:54.159Z,1.87
2022-09-05T16:30:22.240Z,0.83
2022-09-05T16:32:54.157Z,0.67
2022-09-05T16:35:26.668Z,1.70
2022-09-05T16:38:02.806Z,1.63
2022-09-05T16:40:35.424Z,0.93
2022-09-05T16:43:08.568Z,0.77
2022-09-05T16:45:43.359Z,0.73
2022-09-05T16:48:16.634Z,3.60
2022-09-05T16:50:53.447Z,1.10
2022-09-05T16:53:30.569Z,3.00
2022-09-05T16:56:04.213Z,2.60
2022-09-05T16:58:40.132Z,1.23
2022-09-05T17:01:09.946Z,1.10
2022-09-05T17:03:49.314Z,2.50
2022-09-05T17:06:46.281Z,1.50
2022-09-05T17:09:21.583Z,0.90
2022-09-05T17:12:01.439Z,1.53
2022-09-05T17:14:34.767Z,1.53
2022-09-05T17:17:44.071Z,0.50
2022-09-05T17:20:06.980Z,1.27
2022-09-05T17:26:11.644Z,2.40
2022-09-05T17:29:23.472Z,1.50
2022-09-05T17:29:26.427Z,2.20
2022-09-05T17:31:55.887Z,3.70
2022-09-05T17:34:49.843Z,2.27
2022-09-05T17:37:32.234Z,2.87
2022-09-05T17:40:25.360Z,4.37
2022-09-05T17:42:56.698Z,4.00
2022-09-05T17:45:44.969Z,3.67
2022-09-05T17:48:36.012Z,5.60
2022-09-05T17:51:02.660Z,14.23
2022-09-05T17:53:33.297Z,25.60
2022-09-05T17:55:59.922Z,31.27
2022-09-05T17:58:49.521Z,14.33
2022-09-05T18:01:27.164Z,13.80
2022-09-05T18:04:15.773Z,11.37
2022-09-05T18:09:48.077Z,71.23
2022-09-05T18:13:31.951Z,49.00
2022-09-05T18:15:27.553Z,16.57
2022-09-05T18:17:54.766Z,12.67
2022-09-05T18:20:34.566Z,9.07
2022-09-05T18:23:19.344Z,9.90
2022-09-05T18:26:09.362Z,11.07
2022-09-05T18:29:02.806Z,5.90
2022-09-05T18:31:41.991Z,9.63
2022-09-05T18:34:15.249Z,8.97
2022-09-05T18:36:44.764Z,6.97
2022-09-05T18:39:24.801Z,12.83
2022-09-05T18:42:14.783Z,10.10
2022-09-05T18:45:03.651Z,10.20
2022-09-05T18:47:59.081Z,15.27
2022-09-05T18:50:33.959Z,11.80
2022-09-05T18:53:10.629Z,15.10
2022-09-05T18:56:12.488Z,15.43
2022-09-05T18:58:51.646Z,11.47
2022-09-05T19:01:28.542Z,16.70
2022-09-05T19:04:00.255Z,19.73
2022-09-05T19:06:36.096Z,9.73
2022-09-05T19:09:09.522Z,10.97
2022-09-05T19:12:18.282Z,6.67
2022-09-05T19:14:50.762Z,5.87
2022-09-05T19:17:24.262Z,5.10
2022-09-05T19:20:30.918Z,4.20
2022-09-05T19:23:21.933Z,3.73
2022-09-05T19:25:59.109Z,5.47
2022-09-05T19:36:46.779Z,2.87
2022-09-05T19:37:07.381Z,6.20
2022-09-05T19:37:25.452Z,9.87
2022-09-05T19:37:31.120Z,3.13
2022-09-05T19:43:02.583Z,4.47
2022-09-05T19:47:36.820Z,2.77
2022-09-05T19:47:43.634Z,9.33
2022-09-05T19:48:34.646Z,3.83
2022-09-05T19:51:17.143Z,5.23
2022-09-05T19:53:53.943Z,5.77
2022-09-05T19:56:40.076Z,6.20
2022-09-05T19:59:22.490Z,5.83
2022-09-05T20:01:52.024Z,18.10
2022-09-05T20:04:20.814Z,20.73
2022-09-05T20:06:49.747Z,5.57
2022-09-05T20:09:19.461Z,5.33
2022-09-05T20:11:49.880Z,5.97
2022-09-05T20:14:30.872Z,5.53
2022-09-05T20:17:26.691Z,3.83
2022-09-05T20:20:15.566Z,3.83
2022-09-05T20:22:50.668Z,4.83
2022-09-05T20:25:43.579Z,4.97
2022-09-05T20:28:14.851Z,5.00
2022-09-05T20:30:44.870Z,3.97
2022-09-05T20:33:30.345Z,4.40
2022-09-05T20:43:12.031Z,3.70
2022-09-05T20:43:27.431Z,4.27
2022-09-05T20:43:36.549Z,2.57
2022-09-05T20:44:41.823Z,3.80
2022-09-05T20:54:13.078Z,4.90
2022-09-05T20:54:13.196Z,3.83
2022-09-05T20:54:25.800Z,2.87
2022-09-05T20:56:22.735Z,2.53
2022-09-05T20:58:50.584Z,2.53
2022-09-05T21:01:24.560Z,2.53
2022-09-05T21:04:02.479Z,2.57
2022-09-05T21:06:33.961Z,3.90
2022-09-05T21:09:24.598Z,2.47
2022-09-05T21:11:54.722Z,1.40
2022-09-05T21:14:23.511Z,3.17
2022-09-05T21:17:16.018Z,2.07
2022-09-05T21:19:53.435Z,2.20
2022-09-05T21:22:21.009Z,2.70
2022-09-05T21:24:48.557Z,1.83
2022-09-05T21:27:22.747Z,6.23
2022-09-05T21:29:58.803Z,1.80
2022-09-05T21:32:36.158Z,1.83
2022-09-05T21:35:34.534Z,2.47
2022-09-05T21:37:53.884Z,2.53
2022-09-05T21:40:21.616Z,2.20
2022-09-05T21:47:21.657Z,4.80
2022-09-05T21:47:39.617Z,3.10
2022-09-05T21:48:24.207Z,3.53
2022-09-05T21:50:53.506Z,3.60
2022-09-05T21:59:16.214Z,1.63
2022-09-05T21:59:28.596Z,2.00
2022-09-05T21:59:36.659Z,2.03
2022-09-05T22:02:08.460Z,1.63
2022-09-05T22:04:41.313Z,1.20
2022-09-05T22:07:15.781Z,1.17
2022-09-05T22:09:46.154Z,2.50
2022-09-05T22:12:30.086Z,2.03
2022-09-05T22:14:57.984Z,4.00
2022-09-05T22:17:45.241Z,3.53
2022-09-05T22:20:15.229Z,2.37
2022-09-05T22:22:42.784Z,3.00
2022-09-05T22:25:27.286Z,3.07
2022-09-05T22:28:03.175Z,3.10
2022-09-05T22:30:29.789Z,3.30
2022-09-05T22:32:56.366Z,3.03
2022-09-05T22:35:28.258Z,3.13
2022-09-05T22:38:11.678Z,3.20
2022-09-05T22:40:41.492Z,6.10
2022-09-05T22:43:09.692Z,3.67
2022-09-05T22:45:38.057Z,2.53
2022-09-05T22:48:13.149Z,2.53
2022-09-05T22:50:41.085Z,2.20
2022-09-05T22:53:09.865Z,2.97
2022-09-05T22:55:40.232Z,3.80
2022-09-05T22:58:08.962Z,3.93
2022-09-05T23:00:36.314Z,4.13
2022-09-05T23:03:05.794Z,4.07
2022-09-05T23:05:33.646Z,3.93
2022-09-05T23:08:01.637Z,2.80
2022-09-05T23:10:30.052Z,1.90
2022-09-05T23:12:57.503Z,2.47
2022-09-05T23:15:25.527Z,2.23
2022-09-05T23:17:56.513Z,6.10
2022-09-05T23:20:24.703Z,4.27
2022-09-05T23:22:51.466Z,3.17
2022-09-05T23:25:18.591Z,4.93
2022-09-05T23:27:45.289Z,4.60
2022-09-05T23:30:12.208Z,4.63
2022-09-05T23:32:50.807Z,4.97
2022-09-05T23:35:18.772Z,4.97
2022-09-05T23:37:46.949Z,5.20
2022-09-05T23:40:20.157Z,4.70
2022-09-05T23:42:54.892Z,5.23
2022-09-05T23:45:23.066Z,5.47
2022-09-05T23:47:49.727Z,7.77
2022-09-05T23:50:17.447Z,4.33
2022-09-05T23:52:45.841Z,4.87
2022-09-05T23:55:16.127Z,6.70
2022-09-05T23:57:42.989Z,4.60
